Time;durP1;ratioP1;P1;durP2;ratioP2;P2;SDS_P1;SDS_P2;PMS_P1;PMS_P2;Temp;Humidity;BMP_temperature;BMP_pressure;BME280_temperature;BME280_humidity;BME280_pressure;Samples;Min_cycle;Max_cycle;Signal;HPM_P1;HPM_P2
2023/10/06 00:01:44;;;;;;;11.68;3.45;;;14.50;99.90;;;;;;5063919;28;20046;-69
2023/10/06 00:04:15;;;;;;;14.32;3.67;;;14.50;99.90;;;;;;5060593;28;21420;-68
2023/10/06 00:06:42;;;;;;;10.90;3.30;;;14.50;99.90;;;;;;5063692;28;20448;-69
2023/10/06 00:09:09;;;;;;;14.73;3.95;;;14.50;99.90;;;;;;5063811;28;20040;-69
2023/10/06 00:11:40;;;;;;;13.85;4.20;;;14.50;99.90;;;;;;5062167;28;20037;-69
2023/10/06 00:14:08;;;;;;;9.68;2.83;;;14.50;99.90;;;;;;5062484;28;20040;-69
2023/10/06 00:16:40;;;;;;;11.98;3.25;;;14.40;99.90;;;;;;5060567;28;20759;-68
2023/10/06 00:19:21;;;;;;;14.27;3.90;;;14.40;99.90;;;;;;5061727;28;20123;-68
2023/10/06 00:21:47;;;;;;;11.88;3.55;;;14.40;99.90;;;;;;5047945;28;20460;-69
2023/10/06 00:24:13;;;;;;;9.82;3.28;;;14.40;99.90;;;;;;5065963;28;20056;-69
2023/10/06 00:26:42;;;;;;;14.27;3.65;;;14.40;99.90;;;;;;5061877;28;20049;-69
2023/10/06 00:29:18;;;;;;;14.30;3.40;;;14.40;99.90;;;;;;5065015;28;20043;-69
2023/10/06 00:31:47;;;;;;;12.25;3.80;;;14.40;99.90;;;;;;5060766;28;20444;-69
2023/10/06 00:34:19;;;;;;;16.58;3.63;;;14.40;99.90;;;;;;5061503;28;20072;-68
2023/10/06 00:36:55;;;;;;;15.23;3.60;;;14.40;99.90;;;;;;5066054;28;20056;-69
2023/10/06 00:39:23;;;;;;;14.75;3.58;;;14.40;99.90;;;;;;5063937;28;20080;-69
2023/10/06 00:41:55;;;;;;;12.02;4.57;;;14.30;99.90;;;;;;5066322;28;20052;-68
2023/10/06 00:44:23;;;;;;;12.98;3.97;;;14.40;99.90;;;;;;5064820;28;20052;-69
2023/10/06 00:46:49;;;;;;;9.35;3.53;;;14.40;99.90;;;;;;5065576;28;20033;-69
2023/10/06 00:49:15;;;;;;;11.48;4.00;;;14.40;99.90;;;;;;5065478;28;20059;-68
2023/10/06 00:51:41;;;;;;;10.00;3.92;;;14.40;99.90;;;;;;5063505;28;20040;-69
2023/10/06 00:54:07;;;;;;;17.85;3.85;;;14.40;99.90;;;;;;5065643;28;20158;-69
2023/10/06 00:56:33;;;;;;;13.93;4.03;;;14.40;99.90;;;;;;5063130;28;20075;-69
2023/10/06 00:59:04;;;;;;;9.65;3.30;;;14.30;99.90;;;;;;5064345;28;20541;-69
2023/10/06 01:01:30;;;;;;;15.85;4.30;;;14.40;99.90;;;;;;5064108;28;20044;-69
2023/10/06 01:04:08;;;;;;;11.05;3.22;;;14.30;99.90;;;;;;5069528;28;20408;-68
2023/10/06 01:06:39;;;;;;;11.77;3.97;;;14.40;99.90;;;;;;5074811;28;20059;-69
2023/10/06 01:11:50;;;;;;;13.48;3.95;;;14.40;99.90;;;;;;5065300;28;20048;-68
2023/10/06 01:14:21;;;;;;;14.25;3.90;;;14.40;99.90;;;;;;5065178;28;20120;-68
2023/10/06 01:16:49;;;;;;;10.07;3.38;;;14.30;99.90;;;;;;5055531;28;20421;-68
2023/10/06 01:19:28;;;;;;;14.85;3.97;;;14.40;99.90;;;;;;5041350;28;20074;-68
2023/10/06 01:21:55;;;;;;;13.77;4.43;;;14.40;99.90;;;;;;5045808;28;20052;-68
2023/10/06 01:24:25;;;;;;;13.80;3.83;;;14.40;99.90;;;;;;5049277;28;20068;-68
2023/10/06 01:27:06;;;;;;;12.68;3.90;;;14.40;99.90;;;;;;5063233;28;20409;-69
2023/10/06 01:29:32;;;;;;;11.73;4.28;;;14.40;99.90;;;;;;5065210;28;20044;-68
2023/10/06 01:32:05;;;;;;;12.30;4.40;;;14.40;99.90;;;;;;5064538;28;20089;-68
2023/10/06 01:34:39;;;;;;;12.02;3.95;;;14.40;99.90;;;;;;5081543;28;20048;-68
2023/10/06 01:37:07;;;;;;;13.10;4.18;;;14.40;99.90;;;;;;5064972;28;20394;-69
2023/10/06 01:39:36;;;;;;;11.63;4.63;;;14.40;99.90;;;;;;5076564;28;20583;-68
2023/10/06 01:42:16;;;;;;;16.50;4.45;;;14.40;99.90;;;;;;5063031;28;20076;-68
2023/10/06 01:44:43;;;;;;;18.27;4.45;;;14.40;99.90;;;;;;5060391;28;20077;-68
2023/10/06 01:47:09;;;;;;;12.88;4.22;;;14.50;99.90;;;;;;5062539;28;20063;-68
2023/10/06 01:49:35;;;;;;;16.95;4.88;;;14.40;99.90;;;;;;5059070;28;20051;-68
2023/10/06 01:52:05;;;;;;;11.93;5.28;;;14.40;99.90;;;;;;5064949;28;20051;-68
2023/10/06 01:54:34;;;;;;;17.08;5.40;;;14.40;99.90;;;;;;5064361;28;20092;-68
2023/10/06 01:57:06;;;;;;;12.32;5.00;;;14.50;99.90;;;;;;5062183;28;20444;-69
2023/10/06 01:59:33;;;;;;;17.70;5.53;;;14.40;99.90;;;;;;5064684;28;20045;-68
2023/10/06 02:02:02;;;;;;;15.25;5.63;;;14.50;99.90;;;;;;5079873;28;20379;-68
2023/10/06 02:04:38;;;;;;;16.90;5.78;;;14.40;99.90;;;;;;5065136;28;20052;-68
2023/10/06 02:07:05;;;;;;;20.23;5.82;;;14.50;99.90;;;;;;5057656;28;20130;-68
2023/10/06 02:09:32;;;;;;;16.10;5.00;;;14.40;99.90;;;;;;5056863;28;20040;-68
2023/10/06 02:11:57;;;;;;;18.83;5.65;;;14.50;99.90;;;;;;5067585;28;20049;-69
2023/10/06 02:14:23;;;;;;;16.58;5.90;;;14.50;99.90;;;;;;5068612;28;20044;-68
2023/10/06 02:16:49;;;;;;;15.93;5.70;;;14.50;99.90;;;;;;5067762;28;20532;-68
2023/10/06 02:19:18;;;;;;;16.55;5.07;;;14.50;99.90;;;;;;5068462;28;20203;-69
2023/10/06 02:21:51;;;;;;;16.30;5.82;;;14.50;99.90;;;;;;5062264;28;20468;-68
2023/10/06 02:24:17;;;;;;;13.25;5.60;;;14.50;99.90;;;;;;5076328;28;20119;-68
2023/10/06 02:27:04;;;;;;;18.40;5.50;;;14.50;99.90;;;;;;5066151;28;20033;-69
2023/10/06 02:29:30;;;;;;;14.50;5.93;;;14.50;99.90;;;;;;5067718;28;20563;-69
2023/10/06 02:32:01;;;;;;;15.23;6.60;;;14.50;99.90;;;;;;5065504;28;20106;-69
2023/10/06 02:34:29;;;;;;;17.92;5.85;;;14.50;99.90;;;;;;5069689;28;20109;-68
2023/10/06 02:37:00;;;;;;;17.60;5.95;;;14.50;99.90;;;;;;5064866;28;20040;-69
2023/10/06 02:39:33;;;;;;;18.13;5.55;;;14.50;99.90;;;;;;5075982;28;20039;-68
2023/10/06 02:42:02;;;;;;;15.60;5.85;;;14.50;99.90;;;;;;5066847;28;20513;-68
2023/10/06 02:44:29;;;;;;;19.15;5.95;;;14.50;99.90;;;;;;5053528;28;20053;-69
2023/10/06 02:46:59;;;;;;;18.42;6.22;;;14.50;99.90;;;;;;5063281;28;20051;-69
2023/10/06 02:49:37;;;;;;;15.87;5.67;;;14.50;99.90;;;;;;5084542;28;20504;-69
2023/10/06 02:52:13;;;;;;;13.50;5.65;;;14.40;99.90;;;;;;5067971;28;20295;-68
2023/10/06 02:54:55;;;;;;;20.05;5.82;;;14.50;99.90;;;;;;5050912;28;20111;-68
2023/10/06 02:57:21;;;;;;;15.77;5.90;;;14.50;99.90;;;;;;5044417;28;20127;-68
2023/10/06 02:59:48;;;;;;;17.00;7.28;;;14.40;99.90;;;;;;5065191;28;20040;-68
2023/10/06 03:02:17;;;;;;;13.48;5.85;;;14.40;99.90;;;;;;5066402;28;20573;-70
2023/10/06 03:04:48;;;;;;;16.65;5.75;;;14.40;99.90;;;;;;5065631;28;20052;-68
2023/10/06 03:07:15;;;;;;;17.83;5.95;;;14.40;99.90;;;;;;5060413;28;20117;-68
2023/10/06 03:09:47;;;;;;;16.65;6.07;;;14.40;99.90;;;;;;5066839;28;20642;-68
2023/10/06 03:14:54;;;;;;;17.13;6.10;;;14.40;99.90;;;;;;5066089;28;20052;-68
2023/10/06 03:17:20;;;;;;;18.08;6.57;;;14.50;99.90;;;;;;5044402;28;20189;-68
2023/10/06 03:20:01;;;;;;;16.73;6.80;;;14.40;99.90;;;;;;5066742;28;20139;-67
2023/10/06 03:22:28;;;;;;;20.88;7.10;;;14.40;99.90;;;;;;5068268;28;20112;-67
2023/10/06 03:24:58;;;;;;;15.20;6.13;;;14.40;99.90;;;;;;5065679;28;20101;-68
2023/10/06 03:27:24;;;;;;;15.13;6.78;;;14.40;99.90;;;;;;5067145;28;20126;-68
2023/10/06 03:29:54;;;;;;;18.15;7.05;;;14.40;99.90;;;;;;5066318;28;20120;-68
2023/10/06 03:32:32;;;;;;;18.17;6.80;;;14.40;99.90;;;;;;5065625;28;20099;-68
2023/10/06 03:37:52;;;;;;;21.67;7.93;;;14.30;99.90;;;;;;5065317;28;20052;-68
2023/10/06 03:40:23;;;;;;;19.35;7.72;;;14.30;99.90;;;;;;5041484;28;20053;-68
2023/10/06 03:42:50;;;;;;;17.45;8.63;;;14.30;99.90;;;;;;5048913;28;20091;-68
2023/10/06 03:45:26;;;;;;;19.88;8.20;;;14.30;99.90;;;;;;5049583;28;20044;-68
2023/10/06 03:48:12;;;;;;;17.50;8.73;;;14.30;99.90;;;;;;5049859;28;20041;-68
2023/10/06 03:50:44;;;;;;;25.42;9.65;;;14.30;99.90;;;;;;5047034;28;20551;-68
2023/10/06 03:53:12;;;;;;;20.55;8.95;;;14.30;99.90;;;;;;5043182;28;20040;-68
2023/10/06 03:55:44;;;;;;;18.38;8.85;;;14.30;99.90;;;;;;5066028;28;20052;-68
2023/10/06 03:58:12;;;;;;;24.73;9.93;;;14.30;99.90;;;;;;5074915;28;20040;-68
2023/10/06 04:00:48;;;;;;;20.40;8.85;;;14.20;99.90;;;;;;5063203;28;20052;-68
2023/10/06 04:03:17;;;;;;;19.50;9.55;;;14.30;99.90;;;;;;5074792;28;20068;-68
2023/10/06 04:05:52;;;;;;;19.77;9.10;;;14.20;99.90;;;;;;5061137;28;20082;-68
2023/10/06 04:08:20;;;;;;;19.38;8.93;;;14.20;99.90;;;;;;5062936;28;20052;-68
2023/10/06 04:10:50;;;;;;;24.83;9.48;;;14.30;99.90;;;;;;5066008;28;20029;-68
2023/10/06 04:13:18;;;;;;;24.52;8.98;;;14.20;99.90;;;;;;5063887;28;20040;-68
2023/10/06 04:15:54;;;;;;;19.95;9.45;;;14.20;99.90;;;;;;5064201;28;20051;-68
2023/10/06 04:18:22;;;;;;;20.17;9.25;;;14.20;99.90;;;;;;5066459;28;20587;-68
2023/10/06 04:20:49;;;;;;;21.75;9.40;;;14.20;99.90;;;;;;5068395;28;20095;-68
2023/10/06 04:23:17;;;;;;;21.05;8.98;;;14.30;99.90;;;;;;5066281;28;20670;-68
2023/10/06 04:25:44;;;;;;;19.80;8.45;;;14.30;99.90;;;;;;5066079;28;20044;-68
2023/10/06 04:28:13;;;;;;;20.55;9.15;;;14.30;99.90;;;;;;5064979;28;20401;-68
2023/10/06 04:30:46;;;;;;;15.93;7.93;;;14.30;99.90;;;;;;5080969;28;20059;-68
2023/10/06 04:33:16;;;;;;;21.10;8.90;;;14.20;99.90;;;;;;5065285;28;20498;-68
2023/10/06 04:38:30;;;;;;;19.83;8.57;;;14.30;99.90;;;;;;5063032;28;20083;-69
2023/10/06 04:40:56;;;;;;;21.88;8.35;;;14.30;99.90;;;;;;5048320;28;20036;-68
2023/10/06 04:43:23;;;;;;;17.75;8.15;;;14.30;99.90;;;;;;5065776;28;20075;-68
2023/10/06 04:45:50;;;;;;;21.42;8.25;;;14.30;99.90;;;;;;5065112;28;20890;-68
2023/10/06 04:48:18;;;;;;;18.70;9.07;;;14.40;99.90;;;;;;5063298;28;20112;-68
2023/10/06 04:50:45;;;;;;;23.67;8.32;;;14.20;99.90;;;;;;5063147;28;20043;-68
2023/10/06 04:53:11;;;;;;;22.67;8.60;;;14.30;99.90;;;;;;5054714;28;20052;-68
2023/10/06 04:55:40;;;;;;;14.95;7.22;;;14.30;99.90;;;;;;5064751;28;20090;-68
2023/10/06 04:58:15;;;;;;;17.30;7.45;;;14.20;99.90;;;;;;5049925;28;20103;-68
2023/10/06 05:00:41;;;;;;;21.73;7.93;;;14.30;99.90;;;;;;5049694;28;20673;-68
2023/10/06 05:03:10;;;;;;;20.88;6.88;;;14.30;99.90;;;;;;5050603;28;20135;-68
2023/10/06 05:05:38;;;;;;;16.55;6.97;;;14.30;99.90;;;;;;5051005;28;20452;-68
2023/10/06 05:08:04;;;;;;;18.20;7.53;;;14.30;99.90;;;;;;5064549;28;20048;-66
2023/10/06 05:10:31;;;;;;;16.10;7.13;;;14.30;99.90;;;;;;5051376;28;20049;-66
2023/10/06 05:12:59;;;;;;;18.70;8.02;;;14.30;99.90;;;;;;5050709;28;20490;-66
2023/10/06 05:15:26;;;;;;;20.58;7.15;;;14.30;99.90;;;;;;5048809;28;20071;-67
2023/10/06 05:17:55;;;;;;;15.70;6.47;;;14.30;99.90;;;;;;5055404;28;20569;-67
2023/10/06 05:20:29;;;;;;;18.00;7.68;;;14.20;99.90;;;;;;5033124;28;20052;-66
2023/10/06 05:22:58;;;;;;;18.38;6.90;;;14.30;99.90;;;;;;5046956;28;20641;-67
2023/10/06 05:25:26;;;;;;;15.07;7.28;;;14.30;99.90;;;;;;5045963;28;20048;-67
2023/10/06 05:27:53;;;;;;;15.68;6.72;;;14.30;99.90;;;;;;5050853;28;20044;-67
2023/10/06 05:30:21;;;;;;;18.25;6.65;;;14.30;99.90;;;;;;5035941;28;20040;-67
2023/10/06 05:32:47;;;;;;;16.05;6.72;;;14.20;99.90;;;;;;5057720;28;20051;-67
2023/10/06 05:35:13;;;;;;;20.80;6.95;;;14.20;99.90;;;;;;5064187;28;20084;-67
2023/10/06 05:37:44;;;;;;;21.17;7.13;;;14.30;99.90;;;;;;5057495;28;20405;-67
2023/10/06 05:40:15;;;;;;;16.27;6.72;;;14.20;99.90;;;;;;5052914;28;20576;-66
2023/10/06 05:42:48;;;;;;;19.27;6.72;;;14.20;99.90;;;;;;5048161;28;20056;-67
2023/10/06 05:45:15;;;;;;;20.27;6.97;;;14.20;99.90;;;;;;5033806;28;20118;-66
2023/10/06 05:47:50;;;;;;;32.38;7.82;;;14.20;99.90;;;;;;5068176;28;20124;-67
2023/10/06 05:50:29;;;;;;;15.65;6.00;;;14.20;99.90;;;;;;5066001;28;20052;-67
2023/10/06 05:52:58;;;;;;;16.42;7.15;;;14.20;99.90;;;;;;5078574;28;20105;-67
2023/10/06 05:55:38;;;;;;;14.85;6.32;;;14.20;99.90;;;;;;5069559;28;20037;-67
2023/10/06 05:58:23;;;;;;;14.68;6.85;;;14.20;99.90;;;;;;5061137;28;20080;-67
2023/10/06 06:00:55;;;;;;;16.10;6.53;;;14.20;99.90;;;;;;5068165;28;20520;-67
2023/10/06 06:03:23;;;;;;;14.93;7.20;;;14.20;99.90;;;;;;5057725;28;20517;-67
2023/10/06 06:05:50;;;;;;;20.50;6.70;;;14.20;99.90;;;;;;5057395;28;20059;-67
2023/10/06 06:08:16;;;;;;;17.17;6.65;;;14.20;99.90;;;;;;5055262;28;20510;-68
2023/10/06 06:10:41;;;;;;;15.57;6.65;;;14.20;99.90;;;;;;5044158;28;20325;-67
2023/10/06 06:13:07;;;;;;;16.88;7.43;;;14.20;99.90;;;;;;5023518;28;20056;-67
2023/10/06 06:15:35;;;;;;;20.20;6.97;;;14.30;99.90;;;;;;5040044;28;20669;-64
2023/10/06 06:18:01;;;;;;;16.40;6.38;;;14.30;99.90;;;;;;5042641;28;20451;-67
2023/10/06 06:20:30;;;;;;;19.70;7.03;;;14.30;99.90;;;;;;5049144;28;20049;-67
2023/10/06 06:22:59;;;;;;;18.77;6.25;;;14.30;99.90;;;;;;5042019;28;20044;-67
2023/10/06 06:25:28;;;;;;;23.50;6.88;;;14.30;99.90;;;;;;5042216;28;20883;-67
2023/10/06 06:27:55;;;;;;;12.43;6.13;;;14.30;99.90;;;;;;5065171;28;20125;-68
2023/10/06 06:30:24;;;;;;;21.27;7.82;;;14.30;99.90;;;;;;5065704;28;20133;-67
2023/10/06 06:32:52;;;;;;;15.68;6.60;;;14.30;99.90;;;;;;5040841;28;20147;-67
2023/10/06 06:35:21;;;;;;;30.38;6.70;;;14.30;99.90;;;;;;5052450;28;20045;-68
2023/10/06 06:37:59;;;;;;;19.75;6.68;;;14.30;99.90;;;;;;5042750;28;20037;-68
2023/10/06 06:40:26;;;;;;;16.45;6.70;;;14.30;99.90;;;;;;5041658;28;20048;-67
2023/10/06 06:42:52;;;;;;;16.83;6.57;;;14.30;99.90;;;;;;5047397;28;20772;-68
2023/10/06 06:45:19;;;;;;;19.33;6.80;;;14.40;99.90;;;;;;5053491;28;20057;-68
2023/10/06 06:47:46;;;;;;;20.63;6.85;;;14.40;99.90;;;;;;5043550;28;20053;-68
2023/10/06 06:50:17;;;;;;;17.75;6.63;;;14.40;99.90;;;;;;5051643;28;20064;-67
2023/10/06 06:52:46;;;;;;;23.13;6.15;;;14.40;99.90;;;;;;5065559;28;20131;-68
2023/10/06 06:55:12;;;;;;;20.40;6.88;;;14.40;99.90;;;;;;5052979;28;20586;-68
2023/10/06 06:57:41;;;;;;;16.02;6.85;;;14.40;99.90;;;;;;5056397;28;20052;-67
2023/10/06 07:00:15;;;;;;;17.65;7.00;;;14.50;99.90;;;;;;5057270;28;20520;-67
2023/10/06 07:02:50;;;;;;;19.60;6.75;;;14.40;99.90;;;;;;5068946;28;20072;-67
2023/10/06 07:05:18;;;;;;;20.77;6.88;;;14.40;99.90;;;;;;5061072;28;20036;-67
2023/10/06 07:07:45;;;;;;;15.70;6.60;;;14.50;99.90;;;;;;5056389;28;20847;-66
2023/10/06 07:10:19;;;;;;;19.05;6.70;;;14.50;99.90;;;;;;5058394;28;20051;-67
2023/10/06 07:12:47;;;;;;;23.42;7.90;;;14.50;99.90;;;;;;5042408;28;20052;-67
2023/10/06 07:15:17;;;;;;;16.85;6.68;;;14.50;99.90;;;;;;5054771;28;20063;-67
2023/10/06 07:17:48;;;;;;;17.95;7.07;;;14.50;99.90;;;;;;5059035;28;20044;-67
2023/10/06 07:20:16;;;;;;;;;;;14.60;99.90;;;;;;5058290;28;20101;-67
2023/10/06 07:22:46;;;;;;;20.73;6.88;;;14.50;99.90;;;;;;5058696;28;19935;-67
2023/10/06 07:25:15;;;;;;;16.83;7.25;;;14.50;99.90;;;;;;5056650;28;20765;-67
2023/10/06 07:27:45;;;;;;;20.63;7.25;;;14.60;99.90;;;;;;5056827;28;20623;-67
2023/10/06 07:30:14;;;;;;;19.25;6.55;;;14.60;99.90;;;;;;5057635;28;20049;-69
2023/10/06 07:32:44;;;;;;;16.23;6.57;;;14.60;99.90;;;;;;5060093;28;20055;-69
2023/10/06 07:35:13;;;;;;;24.17;7.68;;;14.60;99.90;;;;;;5059675;28;20080;-68
2023/10/06 07:37:43;;;;;;;17.30;7.10;;;14.60;99.90;;;;;;5058129;28;20041;-69
2023/10/06 07:40:13;;;;;;;21.38;7.47;;;14.70;99.90;;;;;;5074513;28;20460;-69
2023/10/06 07:42:48;;;;;;;19.38;6.80;;;14.70;99.90;;;;;;5054157;28;20057;-68
2023/10/06 07:45:15;;;;;;;20.48;7.65;;;14.70;99.90;;;;;;5056899;28;20049;-68
2023/10/06 07:47:42;;;;;;;20.08;7.68;;;14.70;99.90;;;;;;5060016;28;20406;-69
2023/10/06 07:50:09;;;;;;;18.52;7.57;;;14.70;99.90;;;;;;5068639;28;20043;-69
2023/10/06 07:52:38;;;;;;;20.45;9.02;;;14.80;99.90;;;;;;5071264;28;20127;-69
2023/10/06 07:55:05;;;;;;;19.58;7.32;;;14.80;99.90;;;;;;5035789;28;20037;-69
2023/10/06 07:57:33;;;;;;;22.45;8.25;;;14.80;99.90;;;;;;5069362;28;20048;-70
2023/10/06 08:00:06;;;;;;;21.30;7.22;;;14.80;99.90;;;;;;5071261;28;20048;-68
2023/10/06 08:02:39;;;;;;;20.08;7.47;;;14.80;99.90;;;;;;5061510;28;20188;-69
2023/10/06 08:05:13;;;;;;;21.58;8.18;;;14.80;99.90;;;;;;5075302;28;20040;-69
2023/10/06 08:07:42;;;;;;;22.27;7.50;;;14.90;99.90;;;;;;5061963;28;20497;-68
2023/10/06 08:10:13;;;;;;;21.50;7.78;;;14.90;99.90;;;;;;5060265;28;20056;-68
2023/10/06 08:12:40;;;;;;;23.85;7.75;;;14.90;99.90;;;;;;5048179;28;20045;-69
2023/10/06 08:15:09;;;;;;;22.90;7.45;;;15.00;99.90;;;;;;5058833;28;20489;-68
2023/10/06 08:17:36;;;;;;;21.33;8.30;;;15.10;99.90;;;;;;5055027;28;20777;-69
2023/10/06 08:20:02;;;;;;;21.90;7.72;;;15.10;99.90;;;;;;5058088;28;20436;-69
2023/10/06 08:22:33;;;;;;;20.95;7.30;;;15.10;99.90;;;;;;5055934;28;20045;-70
2023/10/06 08:25:01;;;;;;;16.83;6.50;;;15.10;99.90;;;;;;5056031;28;20049;-69
2023/10/06 08:27:27;;;;;;;20.15;7.18;;;15.20;99.90;;;;;;5044368;28;20052;-68
2023/10/06 08:29:53;;;;;;;21.40;7.15;;;15.20;99.90;;;;;;5054468;28;20049;-68
2023/10/06 08:32:19;;;;;;;19.17;7.57;;;15.20;99.90;;;;;;5051169;28;20066;-68
2023/10/06 08:34:46;;;;;;;19.85;6.75;;;15.30;99.90;;;;;;5052107;28;20496;-67
2023/10/06 08:37:14;;;;;;;18.77;6.82;;;15.30;99.90;;;;;;5060087;28;20112;-68
2023/10/06 08:39:40;;;;;;;18.33;7.07;;;15.30;99.90;;;;;;5042536;28;20123;-67
2023/10/06 08:42:14;;;;;;;23.90;8.13;;;15.40;99.90;;;;;;5053672;28;20131;-67
2023/10/06 08:44:40;;;;;;;20.80;6.90;;;15.40;99.90;;;;;;5050775;28;20432;-68
2023/10/06 08:47:10;;;;;;;19.67;7.13;;;15.50;99.90;;;;;;5043246;28;20110;-67
2023/10/06 08:49:38;;;;;;;17.85;6.30;;;15.50;99.90;;;;;;5053273;28;20048;-67
2023/10/06 08:52:06;;;;;;;16.65;6.18;;;15.60;99.90;;;;;;5054503;28;20428;-67
2023/10/06 08:54:34;;;;;;;22.67;7.43;;;15.60;99.90;;;;;;5072940;28;20508;-67
2023/10/06 08:57:00;;;;;;;18.73;6.32;;;15.70;99.90;;;;;;5057630;28;20118;-66
2023/10/06 08:59:25;;;;;;;18.52;5.90;;;15.70;99.90;;;;;;5051124;28;20036;-67
2023/10/06 09:01:51;;;;;;;22.48;6.28;;;15.70;99.90;;;;;;5056681;28;20062;-67
2023/10/06 09:04:18;;;;;;;21.73;6.47;;;15.80;99.90;;;;;;5040701;28;20121;-67
2023/10/06 09:07:11;;;;;;;24.80;7.35;;;15.90;99.90;;;;;;5052057;28;20588;-67
2023/10/06 09:09:38;;;;;;;15.98;5.80;;;15.90;99.90;;;;;;5052318;28;20125;-67
2023/10/06 09:12:04;;;;;;;21.08;5.97;;;15.90;99.90;;;;;;5052033;28;20448;-67
2023/10/06 09:14:30;;;;;;;22.60;6.43;;;15.90;99.90;;;;;;5050742;28;20094;-66
2023/10/06 09:17:01;;;;;;;25.95;6.47;;;16.00;99.90;;;;;;5050299;28;20063;-66
2023/10/06 09:19:47;;;;;;;23.42;5.90;;;16.00;99.90;;;;;;5050546;28;20055;-67
2023/10/06 09:22:14;;;;;;;17.25;6.07;;;16.00;99.90;;;;;;5061237;28;20052;-67
2023/10/06 09:24:39;;;;;;;19.73;5.75;;;16.00;99.90;;;;;;5053859;28;20044;-67
2023/10/06 09:27:21;;;;;;;23.55;5.55;;;16.10;99.90;;;;;;5051915;28;20481;-66
2023/10/06 09:29:47;;;;;;;16.60;5.28;;;16.00;99.90;;;;;;5049196;28;20173;-70
2023/10/06 09:32:20;;;;;;;19.05;5.53;;;16.10;99.90;;;;;;5053150;28;20044;-69
2023/10/06 09:34:46;;;;;;;19.83;5.47;;;16.10;99.90;;;;;;5051969;28;20155;-69
2023/10/06 09:37:19;;;;;;;20.02;5.65;;;16.20;99.90;;;;;;5044016;28;20715;-68
2023/10/06 09:39:54;;;;;;;18.30;5.13;;;16.20;99.90;;;;;;5048783;28;20076;-69
2023/10/06 09:42:24;;;;;;;25.88;6.90;;;16.20;99.90;;;;;;5051543;28;20137;-68
2023/10/06 09:44:59;;;;;;;17.60;5.20;;;16.30;99.90;;;;;;5050149;28;20041;-68
2023/10/06 09:47:25;;;;;;;14.00;5.25;;;16.30;99.90;;;;;;5052394;28;20047;-68
2023/10/06 09:49:52;;;;;;;24.90;6.45;;;16.30;99.90;;;;;;5048176;28;20432;-68
2023/10/06 09:52:22;;;;;;;19.00;5.68;;;16.30;99.90;;;;;;5047970;28;20051;-68
2023/10/06 09:54:48;;;;;;;15.68;4.65;;;16.40;99.90;;;;;;5050724;28;20041;-69
2023/10/06 09:57:14;;;;;;;20.73;5.18;;;16.40;99.90;;;;;;5049344;28;20119;-68
2023/10/06 09:59:40;;;;;;;21.85;6.25;;;16.50;99.90;;;;;;5041792;28;20040;-68
2023/10/06 10:02:11;;;;;;;21.42;5.38;;;16.50;99.90;;;;;;5052003;28;20403;-67
2023/10/06 10:04:38;;;;;;;15.98;5.50;;;16.50;99.90;;;;;;5056985;28;20057;-69
2023/10/06 10:07:05;;;;;;;21.83;6.35;;;16.60;99.90;;;;;;5052276;28;20084;-68
2023/10/06 10:09:34;;;;;;;24.40;6.22;;;16.60;99.90;;;;;;5054761;28;20045;-68
2023/10/06 10:12:23;;;;;;;18.08;6.43;;;16.60;99.90;;;;;;5032149;28;20051;-68
2023/10/06 10:14:56;;;;;;;21.95;6.10;;;16.60;99.90;;;;;;5044539;28;20923;-69
2023/10/06 10:17:35;;;;;;;17.08;5.68;;;16.70;99.90;;;;;;5043536;28;20052;-69
2023/10/06 10:20:06;;;;;;;18.63;6.05;;;16.70;99.90;;;;;;5056008;28;20052;-69
2023/10/06 10:22:32;;;;;;;19.60;5.50;;;16.70;99.90;;;;;;5049524;28;20117;-69
2023/10/06 10:25:05;;;;;;;18.25;5.00;;;16.80;99.90;;;;;;5052882;28;20722;-69
2023/10/06 10:27:33;;;;;;;15.85;5.18;;;16.80;99.90;;;;;;5046658;28;20049;-69
2023/10/06 10:30:08;;;;;;;16.75;5.82;;;16.80;99.90;;;;;;5051305;28;20077;-69
2023/10/06 10:32:34;;;;;;;20.35;6.45;;;17.00;99.90;;;;;;5053830;28;20087;-69
2023/10/06 10:35:14;;;;;;;14.68;5.50;;;17.00;99.90;;;;;;5059634;28;20109;-69
2023/10/06 10:38:02;;;;;;;19.30;5.40;;;17.10;99.90;;;;;;5034464;28;20047;-69
2023/10/06 10:40:29;;;;;;;18.95;5.28;;;17.20;99.90;;;;;;5057079;28;20110;-70
2023/10/06 10:43:03;;;;;;;24.88;6.22;;;17.30;99.90;;;;;;5054615;28;20080;-69
2023/10/06 10:45:34;;;;;;;19.55;5.00;;;17.30;99.90;;;;;;5059598;28;20618;-69
2023/10/06 10:48:13;;;;;;;19.83;4.80;;;17.40;99.90;;;;;;5060685;28;20044;-69
2023/10/06 10:51:12;;;;;;;17.30;5.10;;;17.50;99.90;;;;;;5060929;28;20134;-70
2023/10/06 10:53:47;;;;;;;20.67;5.30;;;17.50;99.90;;;;;;5043259;28;20049;-70
2023/10/06 10:56:35;;;;;;;16.67;4.25;;;17.60;99.90;;;;;;5049364;28;20398;-70
2023/10/06 10:59:02;;;;;;;14.90;4.10;;;17.60;99.90;;;;;;5049253;28;20040;-69
2023/10/06 11:01:32;;;;;;;18.30;4.88;;;17.70;99.90;;;;;;5039737;28;20455;-70
2023/10/06 11:06:55;;;;;;;15.70;4.93;;;17.70;99.90;;;;;;5049037;28;20044;-70
2023/10/06 11:09:36;;;;;;;13.60;4.03;;;17.80;99.90;;;;;;5045800;28;20052;-69
2023/10/06 11:12:21;;;;;;;;;;;17.80;99.90;;;;;;5058674;28;20067;-70
2023/10/06 11:14:49;;;;;;;17.83;3.83;;;17.90;99.90;;;;;;5058280;28;19924;-71
2023/10/06 11:17:20;;;;;;;18.73;4.28;;;17.90;99.90;;;;;;5055725;28;20048;-70
2023/10/06 11:19:46;;;;;;;20.70;4.68;;;18.00;99.90;;;;;;5065987;28;20546;-68
2023/10/06 11:22:19;;;;;;;18.70;4.40;;;18.10;99.90;;;;;;5053932;28;20056;-69
2023/10/06 11:24:47;;;;;;;12.20;3.50;;;18.10;99.90;;;;;;5049094;28;20044;-69
2023/10/06 11:27:21;;;;;;;17.58;4.18;;;18.10;99.90;;;;;;5053989;28;20081;-68
2023/10/06 11:29:50;;;;;;;18.45;4.13;;;18.20;99.90;;;;;;5055462;28;20685;-68
2023/10/06 11:32:17;;;;;;;16.67;5.07;;;18.20;99.90;;;;;;5058286;28;20681;-68
2023/10/06 11:34:48;;;;;;;16.00;3.53;;;18.20;99.90;;;;;;5072069;28;20084;-70
2023/10/06 11:37:17;;;;;;;20.02;3.83;;;18.20;99.90;;;;;;5051982;28;20049;-68
2023/10/06 11:39:44;;;;;;;18.85;3.78;;;18.20;99.90;;;;;;5053939;28;20536;-69
2023/10/06 11:42:25;;;;;;;17.48;3.50;;;18.20;99.90;;;;;;5054964;28;20036;-69
2023/10/06 11:44:55;;;;;;;15.25;3.53;;;18.30;99.90;;;;;;5056339;28;20048;-69
2023/10/06 11:47:35;;;;;;;18.35;3.65;;;18.30;99.90;;;;;;5058083;28;20044;-69
2023/10/06 11:50:05;;;;;;;17.67;4.22;;;18.30;99.90;;;;;;5051645;28;20083;-69
2023/10/06 11:52:31;;;;;;;20.40;3.85;;;18.30;99.90;;;;;;5069031;28;20106;-69
2023/10/06 11:54:58;;;;;;;11.98;3.40;;;18.30;99.90;;;;;;5069129;28;20123;-70
2023/10/06 11:57:46;;;;;;;15.05;3.42;;;18.30;99.90;;;;;;5057839;28;20044;-70
2023/10/06 12:00:19;;;;;;;18.15;3.30;;;18.40;99.90;;;;;;5048979;28;20071;-69
2023/10/06 12:02:53;;;;;;;20.80;3.90;;;18.40;99.90;;;;;;5053118;28;20129;-69
2023/10/06 12:05:24;;;;;;;15.82;3.30;;;18.40;99.90;;;;;;5054046;28;20075;-69
2023/10/06 12:07:50;;;;;;;20.17;4.20;;;18.40;99.90;;;;;;5066565;28;20056;-69
2023/10/06 12:10:17;;;;;;;15.25;3.92;;;18.40;99.90;;;;;;5057457;28;20052;-69
2023/10/06 12:12:47;;;;;;;16.83;3.95;;;18.50;99.90;;;;;;5046342;28;20052;-69
2023/10/06 12:15:14;;;;;;;12.70;3.40;;;18.50;99.90;;;;;;5037835;28;20049;-69
2023/10/06 12:17:41;;;;;;;17.30;3.33;;;18.50;99.90;;;;;;5039154;28;20044;-68
2023/10/06 12:20:13;;;;;;;22.80;3.97;;;18.60;99.90;;;;;;5051880;28;20044;-69
2023/10/06 12:22:47;;;;;;;18.85;3.60;;;18.60;99.90;;;;;;5056918;28;20585;-69
2023/10/06 12:25:16;;;;;;;16.50;3.33;;;18.60;99.90;;;;;;5056151;28;20638;-70
2023/10/06 12:27:45;;;;;;;16.23;3.30;;;18.70;99.90;;;;;;5050715;28;20040;-68
2023/10/06 12:30:11;;;;;;;13.52;3.15;;;18.80;99.90;;;;;;5049561;28;20041;-69
2023/10/06 12:32:37;;;;;;;18.08;3.67;;;18.80;99.90;;;;;;5050751;28;20130;-68
2023/10/06 12:35:05;;;;;;;19.88;3.70;;;18.80;99.90;;;;;;5054904;28;20040;-69
2023/10/06 12:37:40;;;;;;;17.15;3.55;;;18.80;99.90;;;;;;5042315;28;22111;-69
2023/10/06 12:40:09;;;;;;;19.10;3.40;;;18.90;99.90;;;;;;5050987;28;20044;-69
2023/10/06 12:42:38;;;;;;;15.85;3.35;;;18.90;99.90;;;;;;5052592;28;20110;-69
2023/10/06 12:45:12;;;;;;;15.88;3.65;;;18.90;99.90;;;;;;5046148;28;20045;-69
2023/10/06 12:47:39;;;;;;;16.02;3.25;;;18.90;99.90;;;;;;5046426;28;20178;-69
2023/10/06 12:50:06;;;;;;;18.42;3.22;;;18.90;99.90;;;;;;5041070;28;20051;-68
2023/10/06 12:52:36;;;;;;;16.05;3.45;;;18.90;99.90;;;;;;5042672;28;20171;-68
2023/10/06 12:55:10;;;;;;;20.02;3.58;;;18.80;99.90;;;;;;5036433;28;20060;-68
2023/10/06 12:57:40;;;;;;;12.88;2.90;;;18.90;99.90;;;;;;5040464;28;20053;-69
2023/10/06 13:00:09;;;;;;;14.10;3.17;;;18.80;99.90;;;;;;5053149;28;20040;-69
2023/10/06 13:02:36;;;;;;;17.48;3.42;;;18.80;99.90;;;;;;5048084;28;20417;-68
2023/10/06 13:05:08;;;;;;;16.38;3.53;;;18.80;99.90;;;;;;5053913;28;22043;-68
2023/10/06 13:07:37;;;;;;;13.45;3.22;;;18.80;99.90;;;;;;5046984;28;20056;-68